createdAt,value
2022-09-14T00:01:27.055Z,99910.28
2022-09-14T00:03:57.192Z,99909.44
2022-09-14T00:06:25.715Z,99894.38
2022-09-14T00:08:54.616Z,99894.38
2022-09-14T00:11:25.819Z,99877.69
2022-09-14T00:13:54.284Z,99881.19
2022-09-14T00:16:24.124Z,99874.38
2022-09-14T00:18:52.986Z,99870.44
2022-09-14T00:21:24.288Z,99853.94
2022-09-14T00:23:52.263Z,99849.19
2022-09-14T00:26:21.748Z,99836.84
2022-09-14T00:28:52.683Z,99846.53
2022-09-14T00:31:21.467Z,99841.56
2022-09-14T00:33:50.407Z,99840.94
2022-09-14T00:36:20.425Z,99831.47
2022-09-14T00:38:48.966Z,99828.78
2022-09-14T00:41:19.779Z,99825.88
2022-09-14T00:44:00.611Z,99827.34
2022-09-14T00:46:31.577Z,99813.31
2022-09-14T00:49:01.921Z,99812.69
2022-09-14T00:51:33.005Z,99819.69
2022-09-14T00:54:02.644Z,99813.94
2022-09-14T00:56:30.939Z,99817.44
2022-09-14T00:59:04.649Z,99815.56
2022-09-14T01:01:32.690Z,99815.16
2022-09-14T01:04:00.478Z,99813.31
2022-09-14T01:06:37.291Z,99815.56
2022-09-14T01:09:16.500Z,99812.91
2022-09-14T01:12:05.399Z,99815.78
2022-09-14T01:14:42.046Z,99820.53
2022-09-14T01:17:16.053Z,99826.72
2022-09-14T01:20:12.430Z,99823.84
2022-09-14T01:22:48.114Z,99810.22
2022-09-14T01:25:46.563Z,99825.47
2022-09-14T01:28:23.656Z,99824.25
2022-09-14T01:30:55.551Z,99818.28
2022-09-14T01:33:30.887Z,99824.66
2022-09-14T01:36:01.870Z,99817.06
2022-09-14T01:38:33.084Z,99819.31
2022-09-14T01:41:04.711Z,99819.91
2022-09-14T01:43:37.508Z,99820.75
2022-09-14T01:46:09.444Z,99823.44
2022-09-14T01:48:43.824Z,99830.84
2022-09-14T01:51:17.198Z,99825.28
2022-09-14T01:53:49.447Z,99825.50
2022-09-14T01:56:20.792Z,99826.75
2022-09-14T01:58:55.781Z,99830.06
2022-09-14T02:01:29.376Z,99832.53
2022-09-14T02:04:04.475Z,99835.84
2022-09-14T02:06:37.253Z,99825.94
2022-09-14T02:09:07.683Z,99825.94
2022-09-14T02:11:35.671Z,99822.44
2022-09-14T02:14:05.114Z,99820.22
2022-09-14T02:16:33.251Z,99812.38
2022-09-14T02:19:01.718Z,99809.91
2022-09-14T02:21:31.555Z,99816.50
2022-09-14T02:24:00.604Z,99809.09
2022-09-14T02:26:29.611Z,99800.22
2022-09-14T02:28:58.229Z,99790.94
2022-09-14T02:31:34.941Z,99798.31
2022-09-14T02:34:09.583Z,99799.19
2022-09-14T02:36:45.804Z,99795.28
2022-09-14T02:39:25.103Z,99793.84
2022-09-14T02:42:00.020Z,99778.16
2022-09-14T02:44:36.628Z,99781.47
2022-09-14T02:47:16.086Z,99770.72
2022-09-14T02:49:49.998Z,99770.72
2022-09-14T02:52:23.404Z,99769.09
2022-09-14T02:54:58.970Z,99753.00
2022-09-14T02:57:27.063Z,99757.13
2022-09-14T02:59:55.239Z,99758.78
2022-09-14T03:02:24.490Z,99748.88
2022-09-14T03:04:52.599Z,99742.09
2022-09-14T03:07:20.313Z,99742.28
2022-09-14T03:09:48.005Z,99743.94
2022-09-14T03:12:15.725Z,99746.81
2022-09-14T03:14:43.399Z,99739.84
2022-09-14T03:17:11.115Z,99733.22
2022-09-14T03:19:41.094Z,99731.56
2022-09-14T03:22:08.864Z,99731.16
2022-09-14T03:24:36.785Z,99727.44
2022-09-14T03:27:04.725Z,99729.91
2022-09-14T03:29:32.449Z,99723.13
2022-09-14T03:32:00.157Z,99727.63
2022-09-14T03:34:27.836Z,99722.06
2022-09-14T03:36:56.877Z,99726.41
2022-09-14T03:39:24.679Z,99726.81
2022-09-14T03:41:52.434Z,99721.25
2022-09-14T03:44:20.114Z,99721.88
2022-09-14T03:46:48.041Z,99722.09
2022-09-14T03:49:15.935Z,99723.72
2022-09-14T03:51:43.842Z,99724.97
2022-09-14T03:54:12.896Z,99719.59
2022-09-14T03:56:41.059Z,99718.41
2022-09-14T03:59:09.727Z,99713.06
2022-09-14T04:01:38.118Z,99711.41
2022-09-14T04:04:06.289Z,99721.94
2022-09-14T04:06:33.979Z,99717.59
2022-09-14T04:09:01.661Z,99719.66
2022-09-14T04:11:31.604Z,99721.94
2022-09-14T04:14:02.400Z,99717.59
2022-09-14T04:16:30.929Z,99708.59
2022-09-14T04:18:58.764Z,99715.16
2022-09-14T04:21:27.231Z,99710.59
2022-09-14T04:24:15.117Z,99697.47
2022-09-14T04:26:46.131Z,99704.22
2022-09-14T04:29:14.593Z,99705.47
2022-09-14T04:31:42.716Z,99694.56
2022-09-14T04:34:12.411Z,99693.75
2022-09-14T04:36:40.316Z,99698.50
2022-09-14T04:39:08.160Z,99699.31
2022-09-14T04:41:36.079Z,99695.00
2022-09-14T04:44:05.180Z,99695.00
2022-09-14T04:46:35.787Z,99694.34
2022-09-14T04:49:04.186Z,99697.88
2022-09-14T04:51:33.907Z,99693.34
2022-09-14T04:54:02.892Z,99681.81
2022-09-14T04:56:33.525Z,99694.16
2022-09-14T04:59:04.167Z,99686.53
2022-09-14T05:01:35.643Z,99687.56
2022-09-14T05:04:04.799Z,99686.75
2022-09-14T05:06:36.261Z,99669.44
2022-09-14T05:09:06.027Z,99683.25
2022-09-14T05:11:35.379Z,99673.56
2022-09-14T05:14:03.619Z,99673.56
2022-09-14T05:16:34.675Z,99681.81
2022-09-14T05:19:04.717Z,99684.66
2022-09-14T05:21:34.295Z,99675.59
2022-09-14T05:24:03.712Z,99673.13
2022-09-14T05:26:32.833Z,99678.91
2022-09-14T05:29:02.524Z,99673.97
2022-09-14T05:31:31.567Z,99674.38
2022-09-14T05:34:00.966Z,99677.47
2022-09-14T05:36:28.680Z,99665.94
2022-09-14T05:38:57.794Z,99670.03
2022-09-14T05:41:25.584Z,99654.41
2022-09-14T05:43:53.297Z,99664.47
2022-09-14T05:46:21.138Z,99668.59
2022-09-14T05:48:51.511Z,99662.03
2022-09-14T05:51:23.115Z,99668.41
2022-09-14T05:53:51.859Z,99670.22
2022-09-14T05:56:21.100Z,99668.19
2022-09-14T05:58:49.304Z,99668.59
2022-09-14T06:01:19.184Z,99667.16
2022-09-14T06:03:47.906Z,99657.91
2022-09-14T06:06:17.921Z,99676.66
2022-09-14T06:08:50.153Z,99634.69
2022-09-14T06:11:21.446Z,99659.59
2022-09-14T06:13:49.775Z,99674.59
2022-09-14T06:16:19.122Z,99670.28
2022-09-14T06:18:47.973Z,99677.28
2022-09-14T06:21:17.330Z,99671.94
2022-09-14T06:23:45.719Z,99676.47
2022-09-14T06:26:15.007Z,99677.28
2022-09-14T06:28:43.367Z,99680.19
2022-09-14T06:31:13.612Z,99683.50
2022-09-14T06:33:44.820Z,99685.78
2022-09-14T06:36:14.730Z,99690.50
2022-09-14T06:38:43.407Z,99688.03
2022-09-14T06:41:13.546Z,99697.91
2022-09-14T06:43:43.783Z,99697.94
2022-09-14T06:46:13.885Z,99700.00
2022-09-14T06:48:44.975Z,99687.44
2022-09-14T06:51:15.291Z,99687.25
2022-09-14T06:53:43.492Z,99683.34
2022-09-14T06:56:11.771Z,99681.28
2022-09-14T06:58:39.738Z,99685.59
2022-09-14T07:01:11.975Z,99690.75
2022-09-14T07:03:40.523Z,99691.38
2022-09-14T07:06:10.919Z,99693.44
2022-09-14T07:08:39.655Z,99687.47
2022-09-14T07:11:09.323Z,99690.13
2022-09-14T07:13:37.221Z,99689.31
2022-09-14T07:16:05.827Z,99688.06
2022-09-14T07:18:35.804Z,99687.25
2022-09-14T07:21:05.703Z,99680.25
2022-09-14T07:23:34.117Z,99673.25
2022-09-14T07:26:05.131Z,99686.25
2022-09-14T07:28:33.265Z,99687.28
2022-09-14T07:31:02.079Z,99688.91
2022-09-14T07:33:30.414Z,99681.72
2022-09-14T07:36:10.758Z,99668.31
2022-09-14T07:38:53.846Z,99671.63
2022-09-14T07:41:22.295Z,99672.44
2022-09-14T07:43:50.991Z,99665.44
2022-09-14T07:46:19.272Z,99663.19
2022-09-14T07:48:47.172Z,99667.72
2022-09-14T07:51:16.296Z,99667.50
2022-09-14T07:53:45.564Z,99661.72
2022-09-14T07:56:16.584Z,99663.38
2022-09-14T07:58:44.970Z,99661.13
2022-09-14T08:01:15.594Z,99660.88
2022-09-14T08:03:48.913Z,99658.03
2022-09-14T08:06:22.890Z,99659.69
2022-09-14T08:08:56.867Z,99657.22
2022-09-14T08:11:26.727Z,99659.88
2022-09-14T08:13:55.957Z,99664.41
2022-09-14T08:16:25.177Z,99655.16
2022-09-14T08:18:55.611Z,99651.03
2022-09-14T08:21:27.297Z,99657.00
2022-09-14T08:23:57.768Z,99658.84
2022-09-14T08:26:31.664Z,99658.22
2022-09-14T08:29:00.432Z,99653.91
2022-09-14T08:31:29.613Z,99663.59
2022-09-14T08:33:58.822Z,99664.63
2022-09-14T08:36:32.102Z,99652.88
2022-09-14T08:39:01.787Z,99664.63
2022-09-14T08:41:31.750Z,99660.91
2022-09-14T08:44:03.035Z,99658.88
2022-09-14T08:46:34.387Z,99656.63
2022-09-14T08:49:07.069Z,99669.38
2022-09-14T08:51:38.636Z,99669.97
2022-09-14T08:54:06.567Z,99668.13
2022-09-14T08:56:37.735Z,99673.25
2022-09-14T08:59:21.093Z,99664.19
2022-09-14T09:02:03.083Z,99677.19
2022-09-14T09:04:40.946Z,99679.47
2022-09-14T09:07:17.764Z,99681.53
2022-09-14T09:09:50.680Z,99689.13
2022-09-14T09:12:24.023Z,99695.94
2022-09-14T09:14:58.880Z,99694.06
2022-09-14T09:17:30.751Z,99686.88
2022-09-14T09:20:06.748Z,99679.03
2022-09-14T09:22:41.292Z,99681.72
2022-09-14T09:25:21.788Z,99687.28
2022-09-14T09:27:49.692Z,99692.22
2022-09-14T09:30:18.201Z,99688.72
2022-09-14T09:32:46.147Z,99688.94
2022-09-14T09:35:42.807Z,99680.06
2022-09-14T09:38:25.634Z,99665.66
2022-09-14T09:41:01.165Z,99668.94
2022-09-14T09:43:48.883Z,99666.69
2022-09-14T09:46:18.576Z,99663.41
2022-09-14T09:48:46.994Z,99660.28
2022-09-14T09:51:26.875Z,99657.84
2022-09-14T09:54:03.082Z,99671.63
2022-09-14T09:56:39.293Z,99672.84
2022-09-14T09:59:26.214Z,99674.50
2022-09-14T10:01:56.482Z,99671.44
2022-09-14T10:04:30.005Z,99664.63
2022-09-14T10:07:01.180Z,99668.31
2022-09-14T10:09:30.422Z,99662.56
2022-09-14T10:12:00.368Z,99668.53
2022-09-14T10:14:38.149Z,99663.41
2022-09-14T10:17:10.355Z,99676.16
2022-09-14T10:19:38.207Z,99658.66
2022-09-14T10:22:21.935Z,99657.81
2022-09-14T10:24:59.302Z,99655.56
2022-09-14T10:27:48.420Z,99661.72
2022-09-14T10:30:18.878Z,99667.91
2022-09-14T10:32:53.426Z,99669.16
2022-09-14T10:35:23.908Z,99667.72
2022-09-14T10:38:05.009Z,99669.16
2022-09-14T10:40:38.822Z,99660.53
2022-09-14T10:43:16.014Z,99653.94
2022-09-14T10:45:50.861Z,99643.22
2022-09-14T10:48:52.892Z,99647.75
2022-09-14T10:51:41.669Z,99638.09
2022-09-14T10:54:21.118Z,99638.47
2022-09-14T10:57:05.723Z,99643.22
2022-09-14T10:59:40.636Z,99652.25
2022-09-14T11:02:38.278Z,99663.34
2022-09-14T11:05:16.922Z,99667.88
2022-09-14T11:07:55.261Z,99673.25
2022-09-14T11:10:31.056Z,99666.66
2022-09-14T11:13:20.198Z,99664.63
2022-09-14T11:15:57.701Z,99662.97
2022-09-14T11:18:32.357Z,99654.13
2022-09-14T11:21:08.722Z,99638.69
2022-09-14T11:23:49.018Z,99629.59
2022-09-14T11:26:21.907Z,99615.38
2022-09-14T11:28:55.014Z,99616.41
2022-09-14T11:31:27.400Z,99621.94
2022-09-14T11:33:59.834Z,99623.78
2022-09-14T11:36:31.459Z,99633.25
2022-09-14T11:39:06.874Z,99630.34
2022-09-14T11:41:40.381Z,99625.81
2022-09-14T11:44:17.084Z,99608.53
2022-09-14T11:46:49.558Z,99617.75
2022-09-14T11:49:22.827Z,99620.81
2022-09-14T11:51:55.035Z,99622.22
2022-09-14T11:54:24.204Z,99614.19
2022-09-14T11:56:55.806Z,99613.59
2022-09-14T11:59:50.867Z,99607.16
2022-09-14T12:02:58.420Z,99607.53
2022-09-14T12:05:34.694Z,99606.34
2022-09-14T12:08:25.024Z,99612.88
2022-09-14T12:11:28.602Z,99604.41
2022-09-14T12:14:22.729Z,99604.78
2022-09-14T12:20:40.373Z,99599.00
2022-09-14T12:23:19.067Z,99596.31
2022-09-14T12:26:13.176Z,99605.41
2022-09-14T12:28:48.076Z,99607.91
2022-09-14T12:32:00.407Z,99602.78
2022-09-14T12:34:32.126Z,99604.88
2022-09-14T12:37:28.184Z,99604.72
2022-09-14T12:40:40.359Z,99603.06
2022-09-14T12:43:52.195Z,99606.34
2022-09-14T12:46:36.330Z,99604.50
2022-09-14T12:49:11.838Z,99603.06
2022-09-14T12:51:48.580Z,99585.75
2022-09-14T12:54:27.657Z,99583.69
2022-09-14T12:57:20.325Z,99587.63
2022-09-14T13:00:00.902Z,99586.59
2022-09-14T13:03:06.031Z,99585.75
2022-09-14T13:05:35.120Z,99577.97
2022-09-14T13:08:10.426Z,99577.50
2022-09-14T13:10:43.799Z,99574.22
2022-09-14T13:13:17.584Z,99553.47
2022-09-14T13:15:53.287Z,99551.41
2022-09-14T13:18:39.628Z,99545.44
2022-09-14T13:21:21.144Z,99543.78
2022-09-14T13:23:50.826Z,99535.13
2022-09-14T13:26:22.516Z,99530.25
2022-09-14T13:28:52.461Z,99520.16
2022-09-14T13:31:26.666Z,99544.81
2022-09-14T13:33:56.500Z,99552.25
2022-09-14T13:36:27.179Z,99569.97
2022-09-14T13:39:01.582Z,99573.91
2022-09-14T13:41:31.876Z,99583.59
2022-09-14T13:44:00.875Z,99575.16
2022-09-14T13:46:29.603Z,99553.38
2022-09-14T13:48:57.695Z,99567.81
2022-09-14T13:51:28.882Z,99579.34
2022-09-14T13:53:59.290Z,99593.97
2022-09-14T13:56:31.208Z,99577.91
2022-09-14T13:59:20.625Z,99570.31
2022-09-14T14:01:55.560Z,99558.19
2022-09-14T14:04:28.741Z,99546.44
2022-09-14T14:07:09.447Z,99550.97
2022-09-14T14:09:44.059Z,99543.59
2022-09-14T14:12:21.082Z,99558.38
2022-09-14T14:14:54.447Z,99555.09
2022-09-14T14:17:41.685Z,99550.97
2022-09-14T14:20:30.839Z,99550.16
2022-09-14T14:23:00.515Z,99550.97
2022-09-14T14:25:35.221Z,99553.03
2022-09-14T14:28:04.455Z,99560.44
2022-09-14T14:30:34.787Z,99561.28
2022-09-14T14:33:02.869Z,99575.09
2022-09-14T14:35:33.338Z,99578.59
2022-09-14T14:38:01.048Z,99580.66
2022-09-14T14:40:28.964Z,99565.22
2022-09-14T14:42:59.408Z,99551.44
2022-09-14T14:45:35.402Z,99560.91
2022-09-14T14:48:04.434Z,99570.38
2022-09-14T14:50:34.013Z,99557.97
2022-09-14T14:53:02.232Z,99566.41
2022-09-14T14:55:31.753Z,99556.13
2022-09-14T14:58:02.955Z,99552.63
2022-09-14T15:00:33.103Z,99551.59
2022-09-14T15:03:04.366Z,99553.22
2022-09-14T15:05:32.624Z,99543.16
2022-09-14T15:08:00.348Z,99529.56
2022-09-14T15:10:30.550Z,99532.66
2022-09-14T15:12:58.243Z,99519.28
2022-09-14T15:15:27.988Z,99517.69
2022-09-14T15:17:55.738Z,99508.00
2022-09-14T15:20:24.207Z,99503.66
2022-09-14T15:22:52.140Z,99491.53
2022-09-14T15:25:21.755Z,99497.50
2022-09-14T15:27:49.494Z,99497.03
2022-09-14T15:30:17.474Z,99516.19
2022-09-14T15:32:46.535Z,99532.84
2022-09-14T15:35:15.411Z,99540.25
2022-09-14T15:37:43.163Z,99549.47
2022-09-14T15:40:11.847Z,99548.44
2022-09-14T15:42:40.087Z,99548.59
2022-09-14T15:45:09.511Z,99549.22
2022-09-14T15:47:37.532Z,99544.28
2022-09-14T15:50:07.671Z,99536.22
2022-09-14T15:52:40.063Z,99541.22
2022-09-14T15:55:11.702Z,99542.69
2022-09-14T15:57:40.071Z,99538.16
2022-09-14T16:00:11.858Z,99551.75
2022-09-14T16:02:44.046Z,99550.50
2022-09-14T16:05:16.044Z,99549.47
2022-09-14T16:07:47.216Z,99547.00
2022-09-14T16:10:15.204Z,99539.59
2022-09-14T16:12:42.916Z,99556.31
2022-09-14T16:15:11.623Z,99542.75
2022-09-14T16:17:39.374Z,99535.75
2022-09-14T16:20:10.054Z,99539.44
2022-09-14T16:22:39.135Z,99543.78
2022-09-14T16:25:07.157Z,99537.38
2022-09-14T16:27:35.370Z,99541.91
2022-09-14T16:30:03.115Z,99543.09
2022-09-14T16:32:30.871Z,99545.56
2022-09-14T16:34:58.666Z,99555.91
2022-09-14T16:37:28.645Z,99570.72
2022-09-14T16:39:58.120Z,99578.97
2022-09-14T16:42:28.603Z,99580.00
2022-09-14T16:44:56.632Z,99577.56
2022-09-14T16:47:25.616Z,99581.06
2022-09-14T16:49:53.447Z,99582.91
2022-09-14T16:52:21.180Z,99588.47
2022-09-14T16:54:51.951Z,99582.91
2022-09-14T16:57:25.343Z,99595.47
2022-09-14T16:59:53.137Z,99606.19
2022-09-14T17:02:21.008Z,99606.59
2022-09-14T17:04:48.826Z,99605.34
2022-09-14T17:07:16.527Z,99605.34
2022-09-14T17:09:44.258Z,99613.59
2022-09-14T17:12:11.961Z,99614.41
2022-09-14T17:14:42.219Z,99610.50
2022-09-14T17:17:12.233Z,99616.06
2022-09-14T17:19:43.541Z,99607.44
2022-09-14T17:22:11.712Z,99607.44
2022-09-14T17:24:39.990Z,99604.53
2022-09-14T17:27:08.471Z,99602.88
2022-09-14T17:29:39.819Z,99602.25
2022-09-14T17:32:15.047Z,99597.53
2022-09-14T17:34:43.114Z,99588.91
2022-09-14T17:37:11.029Z,99587.25
2022-09-14T17:39:45.755Z,99592.63
2022-09-14T17:42:13.490Z,99590.34
2022-09-14T17:44:41.192Z,99580.06
2022-09-14T17:47:10.291Z,99587.25
2022-09-14T17:49:38.407Z,99585.19
2022-09-14T17:52:06.330Z,99581.09
2022-09-14T17:54:34.328Z,99586.84
2022-09-14T17:57:02.057Z,99587.66
2022-09-14T17:59:29.774Z,99594.44
2022-09-14T18:01:57.506Z,99608.84
2022-09-14T18:04:26.872Z,99612.75
2022-09-14T18:06:55.025Z,99617.91
2022-09-14T18:09:25.131Z,99625.13
2022-09-14T18:11:55.995Z,99630.03
2022-09-14T18:14:23.879Z,99628.81
2022-09-14T18:16:51.555Z,99628.81
2022-09-14T18:19:19.350Z,99629.00
2022-09-14T18:21:52.325Z,99632.69
2022-09-14T18:24:20.887Z,99633.72
2022-09-14T18:26:48.743Z,99631.06
2022-09-14T18:29:18.394Z,99618.31
2022-09-14T18:31:46.143Z,99625.53
2022-09-14T18:34:14.518Z,99631.69
2022-09-14T18:36:42.326Z,99635.19
2022-09-14T18:39:13.003Z,99633.31
2022-09-14T18:41:41.375Z,99636.78
2022-09-14T18:44:09.175Z,99647.09
2022-09-14T18:46:38.199Z,99644.59
2022-09-14T18:49:06.119Z,99648.09
2022-09-14T18:51:33.991Z,99647.09
2022-09-14T18:54:04.110Z,99655.50
2022-09-14T18:56:34.892Z,99644.22
2022-09-14T18:59:04.042Z,99637.03
2022-09-14T19:01:32.033Z,99644.00
2022-09-14T19:04:00.053Z,99652.25
2022-09-14T19:06:27.767Z,99652.25
2022-09-14T19:08:55.509Z,99656.34
2022-09-14T19:11:25.301Z,99664.75
2022-09-14T19:13:58.503Z,99656.34
2022-09-14T19:16:26.245Z,99662.50
2022-09-14T19:18:54.303Z,99662.06
2022-09-14T19:21:25.692Z,99663.72
2022-09-14T19:24:00.133Z,99657.75
2022-09-14T19:26:30.286Z,99662.47
2022-09-14T19:29:00.686Z,99660.00
2022-09-14T19:31:30.437Z,99663.50
2022-09-14T19:33:58.527Z,99662.66
2022-09-14T19:36:27.302Z,99670.28
2022-09-14T19:38:57.318Z,99674.81
2022-09-14T19:41:28.075Z,99676.81
2022-09-14T19:43:55.743Z,99679.72
2022-09-14T19:46:24.940Z,99685.06
2022-09-14T19:48:52.926Z,99674.38
2022-09-14T19:51:23.097Z,99679.09
2022-09-14T19:53:52.983Z,99660.31
2022-09-14T19:56:25.369Z,99681.97
2022-09-14T19:58:55.184Z,99681.72
2022-09-14T20:01:26.483Z,99682.16
2022-09-14T20:03:54.876Z,99688.34
2022-09-14T20:06:26.001Z,99683.41
2022-09-14T20:08:56.556Z,99679.72
2022-09-14T20:11:26.191Z,99683.41
2022-09-14T20:13:55.260Z,99684.03
2022-09-14T20:16:27.859Z,99681.78
2022-09-14T20:18:57.633Z,99671.88
2022-09-14T20:21:27.851Z,99683.00
2022-09-14T20:24:15.253Z,99690.81
2022-09-14T20:26:44.314Z,99688.34
2022-09-14T20:29:12.428Z,99697.38
2022-09-14T20:31:41.718Z,99699.22
2022-09-14T20:34:09.532Z,99701.69
2022-09-14T20:36:37.256Z,99705.38
2022-09-14T20:39:05.255Z,99704.94
2022-09-14T20:41:35.026Z,99707.84
2022-09-14T20:44:03.640Z,99709.69
2022-09-14T20:46:35.011Z,99708.88
2022-09-14T20:49:05.712Z,99709.69
2022-09-14T20:51:35.066Z,99702.06
2022-09-14T20:54:02.853Z,99701.69
2022-09-14T20:56:33.059Z,99703.06
2022-09-14T20:59:02.706Z,99700.22
2022-09-14T21:01:34.689Z,99705.75
2022-09-14T21:04:05.862Z,99708.41
2022-09-14T21:06:36.065Z,99711.47
2022-09-14T21:09:03.860Z,99723.38
2022-09-14T21:11:32.077Z,99719.25
2022-09-14T21:14:00.325Z,99717.22
2022-09-14T21:16:29.841Z,99711.22
2022-09-14T21:19:00.107Z,99725.00
2022-09-14T21:21:30.422Z,99723.75
2022-09-14T21:23:59.612Z,99730.94
2022-09-14T21:26:28.893Z,99732.00
2022-09-14T21:28:58.552Z,99733.03
2022-09-14T21:31:28.645Z,99739.59
2022-09-14T21:34:00.016Z,99731.59
2022-09-14T21:36:31.902Z,99735.72
2022-09-14T21:39:00.738Z,99732.22
2022-09-14T21:41:30.723Z,99733.22
2022-09-14T21:43:59.415Z,99739.78
2022-09-14T21:46:28.001Z,99748.63
2022-09-14T21:48:56.937Z,99752.09
2022-09-14T21:51:26.973Z,99746.56
2022-09-14T21:53:57.911Z,99744.09
2022-09-14T21:56:27.366Z,99751.72
2022-09-14T21:58:56.934Z,99749.03
2022-09-14T22:01:25.889Z,99748.03
2022-09-14T22:03:54.894Z,99756.66
2022-09-14T22:06:24.181Z,99757.66
2022-09-14T22:08:52.819Z,99755.59
2022-09-14T22:11:24.685Z,99765.47
2022-09-14T22:13:56.675Z,99762.16
2022-09-14T22:16:26.233Z,99760.06
2022-09-14T22:18:57.399Z,99753.91
2022-09-14T22:21:27.535Z,99758.84
2022-09-14T22:23:58.388Z,99772.19
2022-09-14T22:26:28.989Z,99762.53
2022-09-14T22:28:58.783Z,99770.94
2022-09-14T22:31:28.403Z,99776.28
2022-09-14T22:33:57.847Z,99775.88
2022-09-14T22:36:26.696Z,99774.75
2022-09-14T22:38:56.815Z,99782.19
2022-09-14T22:41:26.063Z,99786.31
2022-09-14T22:43:55.763Z,99778.50
2022-09-14T22:46:24.517Z,99784.66
2022-09-14T22:48:52.915Z,99792.66
2022-09-14T22:51:23.057Z,99787.31
2022-09-14T22:53:50.887Z,99789.56
2022-09-14T22:56:21.769Z,99790.75
2022-09-14T22:58:50.555Z,99785.44
2022-09-14T23:01:21.881Z,99795.28
2022-09-14T23:03:50.273Z,99798.34
2022-09-14T23:06:18.095Z,99792.19
2022-09-14T23:08:47.170Z,99793.03
2022-09-14T23:11:14.907Z,99793.22
2022-09-14T23:13:43.583Z,99778.31
2022-09-14T23:16:12.313Z,99795.81
2022-09-14T23:18:41.785Z,99791.69
2022-09-14T23:21:10.248Z,99796.44
2022-09-14T23:23:39.103Z,99798.47
2022-09-14T23:26:08.990Z,99798.22
2022-09-14T23:28:37.343Z,99795.38
2022-09-14T23:31:05.702Z,99798.22
2022-09-14T23:33:34.402Z,99812.41
2022-09-14T23:36:03.774Z,99804.63
2022-09-14T23:38:31.493Z,99809.53
2022-09-14T23:40:59.482Z,99820.22
2022-09-14T23:43:27.224Z,99814.50
2022-09-14T23:45:55.055Z,99819.19
2022-09-14T23:48:22.872Z,99825.38
2022-09-14T23:50:58.099Z,99823.16
2022-09-14T23:53:28.029Z,99821.50
2022-09-14T23:55:56.345Z,99814.31
2022-09-14T23:58:24.535Z,99821.69
